sensor_id;sensor_type;location;lat;lon;timestamp;P1;durP1;ratioP1;P2;durP2;ratioP2
72286;SDS011;60221;45.696;16.076;2022-09-21T00:01:22;7.37;;;3.22;;
72286;SDS011;60221;45.696;16.076;2022-09-21T00:03:56;7.78;;;2.90;;
72286;SDS011;60221;45.696;16.076;2022-09-21T00:06:26;6.75;;;2.60;;
72286;SDS011;60221;45.696;16.076;2022-09-21T00:08:55;5.87;;;2.30;;
72286;SDS011;60221;45.696;16.076;2022-09-21T00:11:26;5.87;;;2.17;;
72286;SDS011;60221;45.696;16.076;2022-09-21T00:13:55;5.53;;;1.57;;
72286;SDS011;60221;45.696;16.076;2022-09-21T00:16:25;5.80;;;1.22;;
72286;SDS011;60221;45.696;16.076;2022-09-21T00:18:53;6.65;;;1.60;;
72286;SDS011;60221;45.696;16.076;2022-09-21T00:21:19;5.30;;;1.47;;
72286;SDS011;60221;45.696;16.076;2022-09-21T00:23:46;4.67;;;1.32;;
72286;SDS011;60221;45.696;16.076;2022-09-21T00:26:13;5.37;;;1.05;;
72286;SDS011;60221;45.696;16.076;2022-09-21T00:28:44;4.70;;;1.25;;
72286;SDS011;60221;45.696;16.076;2022-09-21T00:31:12;6.25;;;1.57;;
72286;SDS011;60221;45.696;16.076;2022-09-21T00:33:42;4.60;;;1.20;;
72286;SDS011;60221;45.696;16.076;2022-09-21T00:36:09;4.08;;;1.00;;
72286;SDS011;60221;45.696;16.076;2022-09-21T00:38:43;4.22;;;1.30;;
72286;SDS011;60221;45.696;16.076;2022-09-21T00:41:12;5.33;;;1.98;;
72286;SDS011;60221;45.696;16.076;2022-09-21T00:43:44;6.70;;;1.40;;
72286;SDS011;60221;45.696;16.076;2022-09-21T00:46:19;5.87;;;1.65;;
72286;SDS011;60221;45.696;16.076;2022-09-21T00:48:48;5.03;;;1.60;;
72286;SDS011;60221;45.696;16.076;2022-09-21T00:51:15;6.53;;;1.32;;
72286;SDS011;60221;45.696;16.076;2022-09-21T00:53:42;5.08;;;1.95;;
72286;SDS011;60221;45.696;16.076;2022-09-21T00:56:09;6.53;;;2.40;;
72286;SDS011;60221;45.696;16.076;2022-09-21T00:58:38;6.95;;;2.55;;
72286;SDS011;60221;45.696;16.076;2022-09-21T01:01:08;7.20;;;2.58;;
72286;SDS011;60221;45.696;16.076;2022-09-21T01:03:37;6.42;;;2.37;;
72286;SDS011;60221;45.696;16.076;2022-09-21T01:06:04;7.08;;;2.08;;
72286;SDS011;60221;45.696;16.076;2022-09-21T01:08:30;6.23;;;2.00;;
72286;SDS011;60221;45.696;16.076;2022-09-21T01:25:26;7.03;;;2.20;;
72286;SDS011;60221;45.696;16.076;2022-09-21T01:30:39;6.60;;;1.77;;
72286;SDS011;60221;45.696;16.076;2022-09-21T01:33:11;6.25;;;1.90;;
72286;SDS011;60221;45.696;16.076;2022-09-21T01:35:47;4.97;;;1.80;;
72286;SDS011;60221;45.696;16.076;2022-09-21T01:38:25;6.37;;;1.92;;
72286;SDS011;60221;45.696;16.076;2022-09-21T01:40:57;9.83;;;2.08;;
72286;SDS011;60221;45.696;16.076;2022-09-21T01:43:31;6.72;;;1.80;;
72286;SDS011;60221;45.696;16.076;2022-09-21T01:46:15;7.72;;;1.60;;
72286;SDS011;60221;45.696;16.076;2022-09-21T01:48:46;5.50;;;1.67;;
72286;SDS011;60221;45.696;16.076;2022-09-21T01:51:17;4.40;;;1.30;;
72286;SDS011;60221;45.696;16.076;2022-09-21T01:53:50;5.20;;;1.60;;
72286;SDS011;60221;45.696;16.076;2022-09-21T01:56:29;6.85;;;2.27;;
72286;SDS011;60221;45.696;16.076;2022-09-21T02:02:29;6.60;;;2.30;;
72286;SDS011;60221;45.696;16.076;2022-09-21T02:04:58;5.28;;;1.55;;
72286;SDS011;60221;45.696;16.076;2022-09-21T02:07:31;4.42;;;1.27;;
72286;SDS011;60221;45.696;16.076;2022-09-21T02:09:59;5.55;;;1.70;;
72286;SDS011;60221;45.696;16.076;2022-09-21T02:12:27;6.72;;;1.50;;
72286;SDS011;60221;45.696;16.076;2022-09-21T02:14:56;6.87;;;1.53;;
72286;SDS011;60221;45.696;16.076;2022-09-21T02:20:25;5.20;;;1.35;;
72286;SDS011;60221;45.696;16.076;2022-09-21T02:28:39;7.13;;;1.37;;
72286;SDS011;60221;45.696;16.076;2022-09-21T02:34:27;7.03;;;1.25;;
72286;SDS011;60221;45.696;16.076;2022-09-21T02:37:09;6.47;;;1.40;;
72286;SDS011;60221;45.696;16.076;2022-09-21T02:42:15;6.70;;;1.57;;
72286;SDS011;60221;45.696;16.076;2022-09-21T02:45:08;5.85;;;1.67;;
72286;SDS011;60221;45.696;16.076;2022-09-21T02:47:41;6.60;;;1.10;;
72286;SDS011;60221;45.696;16.076;2022-09-21T02:50:49;6.60;;;1.32;;
72286;SDS011;60221;45.696;16.076;2022-09-21T02:53:23;5.37;;;1.37;;
72286;SDS011;60221;45.696;16.076;2022-09-21T02:55:55;7.07;;;1.33;;
72286;SDS011;60221;45.696;16.076;2022-09-21T02:58:26;6.50;;;1.40;;
72286;SDS011;60221;45.696;16.076;2022-09-21T03:00:55;5.50;;;1.20;;
72286;SDS011;60221;45.696;16.076;2022-09-21T03:03:23;6.12;;;1.07;;
72286;SDS011;60221;45.696;16.076;2022-09-21T03:05:53;4.22;;;0.70;;
72286;SDS011;60221;45.696;16.076;2022-09-21T03:08:20;4.47;;;0.60;;
72286;SDS011;60221;45.696;16.076;2022-09-21T03:10:46;2.92;;;0.57;;
72286;SDS011;60221;45.696;16.076;2022-09-21T03:13:15;3.37;;;0.55;;
72286;SDS011;60221;45.696;16.076;2022-09-21T03:15:43;3.95;;;0.70;;
72286;SDS011;60221;45.696;16.076;2022-09-21T03:18:10;3.98;;;0.78;;
72286;SDS011;60221;45.696;16.076;2022-09-21T03:20:38;5.07;;;1.03;;
72286;SDS011;60221;45.696;16.076;2022-09-21T03:23:09;5.33;;;0.90;;
72286;SDS011;60221;45.696;16.076;2022-09-21T03:25:37;4.50;;;0.98;;
72286;SDS011;60221;45.696;16.076;2022-09-21T03:28:03;5.87;;;1.10;;
72286;SDS011;60221;45.696;16.076;2022-09-21T03:30:30;3.33;;;0.78;;
72286;SDS011;60221;45.696;16.076;2022-09-21T03:32:57;7.07;;;0.97;;
72286;SDS011;60221;45.696;16.076;2022-09-21T03:35:23;5.60;;;0.80;;
72286;SDS011;60221;45.696;16.076;2022-09-21T03:37:51;4.60;;;0.65;;
72286;SDS011;60221;45.696;16.076;2022-09-21T03:40:19;4.47;;;0.90;;
72286;SDS011;60221;45.696;16.076;2022-09-21T03:42:46;4.70;;;0.78;;
72286;SDS011;60221;45.696;16.076;2022-09-21T03:45:12;3.67;;;0.60;;
72286;SDS011;60221;45.696;16.076;2022-09-21T03:47:39;3.85;;;0.60;;
72286;SDS011;60221;45.696;16.076;2022-09-21T03:50:06;3.10;;;0.50;;
72286;SDS011;60221;45.696;16.076;2022-09-21T03:52:33;2.13;;;0.20;;
72286;SDS011;60221;45.696;16.076;2022-09-21T03:55:02;6.80;;;0.75;;
72286;SDS011;60221;45.696;16.076;2022-09-21T03:57:31;6.03;;;0.70;;
72286;SDS011;60221;45.696;16.076;2022-09-21T03:59:59;3.60;;;0.53;;
72286;SDS011;60221;45.696;16.076;2022-09-21T04:02:29;5.17;;;0.62;;
72286;SDS011;60221;45.696;16.076;2022-09-21T04:04:56;5.43;;;0.70;;
72286;SDS011;60221;45.696;16.076;2022-09-21T04:07:23;4.80;;;0.40;;
72286;SDS011;60221;45.696;16.076;2022-09-21T04:09:49;3.92;;;0.72;;
72286;SDS011;60221;45.696;16.076;2022-09-21T04:12:15;5.83;;;0.60;;
72286;SDS011;60221;45.696;16.076;2022-09-21T04:14:41;4.30;;;0.80;;
72286;SDS011;60221;45.696;16.076;2022-09-21T04:17:07;7.85;;;1.72;;
72286;SDS011;60221;45.696;16.076;2022-09-21T04:19:33;13.78;;;2.98;;
72286;SDS011;60221;45.696;16.076;2022-09-21T04:21:59;10.88;;;2.35;;
72286;SDS011;60221;45.696;16.076;2022-09-21T04:24:25;7.03;;;1.40;;
72286;SDS011;60221;45.696;16.076;2022-09-21T04:26:52;6.28;;;1.50;;
72286;SDS011;60221;45.696;16.076;2022-09-21T04:29:18;8.08;;;1.25;;
72286;SDS011;60221;45.696;16.076;2022-09-21T04:31:44;4.27;;;0.93;;
72286;SDS011;60221;45.696;16.076;2022-09-21T04:34:11;3.72;;;0.60;;
72286;SDS011;60221;45.696;16.076;2022-09-21T04:36:38;5.45;;;1.07;;
72286;SDS011;60221;45.696;16.076;2022-09-21T04:39:04;8.37;;;0.97;;
72286;SDS011;60221;45.696;16.076;2022-09-21T04:41:31;7.85;;;2.37;;
72286;SDS011;60221;45.696;16.076;2022-09-21T04:43:57;7.15;;;1.25;;
72286;SDS011;60221;45.696;16.076;2022-09-21T04:46:24;6.37;;;1.50;;
72286;SDS011;60221;45.696;16.076;2022-09-21T04:48:50;8.53;;;1.30;;
72286;SDS011;60221;45.696;16.076;2022-09-21T04:51:16;9.68;;;1.02;;
72286;SDS011;60221;45.696;16.076;2022-09-21T04:53:43;5.22;;;1.45;;
72286;SDS011;60221;45.696;16.076;2022-09-21T04:56:12;7.50;;;1.37;;
72286;SDS011;60221;45.696;16.076;2022-09-21T04:58:39;5.80;;;1.50;;
72286;SDS011;60221;45.696;16.076;2022-09-21T05:01:06;5.00;;;1.30;;
72286;SDS011;60221;45.696;16.076;2022-09-21T05:03:32;6.87;;;1.42;;
72286;SDS011;60221;45.696;16.076;2022-09-21T05:05:59;5.12;;;1.25;;
72286;SDS011;60221;45.696;16.076;2022-09-21T05:08:27;4.93;;;1.20;;
72286;SDS011;60221;45.696;16.076;2022-09-21T05:11:12;4.78;;;0.90;;
72286;SDS011;60221;45.696;16.076;2022-09-21T05:13:44;6.53;;;1.25;;
72286;SDS011;60221;45.696;16.076;2022-09-21T05:16:11;5.90;;;1.17;;
72286;SDS011;60221;45.696;16.076;2022-09-21T05:18:37;5.78;;;1.25;;
72286;SDS011;60221;45.696;16.076;2022-09-21T05:21:04;5.27;;;0.90;;
72286;SDS011;60221;45.696;16.076;2022-09-21T05:23:31;5.03;;;1.10;;
72286;SDS011;60221;45.696;16.076;2022-09-21T05:25:58;4.12;;;1.12;;
72286;SDS011;60221;45.696;16.076;2022-09-21T05:28:25;4.83;;;1.20;;
72286;SDS011;60221;45.696;16.076;2022-09-21T05:31:40;10.13;;;1.10;;
72286;SDS011;60221;45.696;16.076;2022-09-21T05:33:53;4.20;;;1.00;;
72286;SDS011;60221;45.696;16.076;2022-09-21T05:39:06;4.33;;;0.62;;
72286;SDS011;60221;45.696;16.076;2022-09-21T05:41:33;3.58;;;0.70;;
72286;SDS011;60221;45.696;16.076;2022-09-21T05:44:01;5.00;;;0.83;;
72286;SDS011;60221;45.696;16.076;2022-09-21T05:52:22;6.15;;;0.80;;
72286;SDS011;60221;45.696;16.076;2022-09-21T05:55:00;7.72;;;1.15;;
72286;SDS011;60221;45.696;16.076;2022-09-21T06:03:54;5.42;;;0.78;;
72286;SDS011;60221;45.696;16.076;2022-09-21T06:06:24;3.55;;;0.60;;
72286;SDS011;60221;45.696;16.076;2022-09-21T06:08:50;4.92;;;0.42;;
72286;SDS011;60221;45.696;16.076;2022-09-21T06:11:16;3.80;;;0.40;;
72286;SDS011;60221;45.696;16.076;2022-09-21T06:13:43;4.70;;;0.62;;
72286;SDS011;60221;45.696;16.076;2022-09-21T06:16:09;5.60;;;0.62;;
72286;SDS011;60221;45.696;16.076;2022-09-21T06:18:39;4.30;;;0.50;;
72286;SDS011;60221;45.696;16.076;2022-09-21T06:21:07;3.65;;;0.50;;
72286;SDS011;60221;45.696;16.076;2022-09-21T06:23:34;5.17;;;0.80;;
72286;SDS011;60221;45.696;16.076;2022-09-21T06:26:01;3.52;;;0.40;;
72286;SDS011;60221;45.696;16.076;2022-09-21T06:28:27;4.60;;;0.60;;
72286;SDS011;60221;45.696;16.076;2022-09-21T06:30:54;3.95;;;0.65;;
72286;SDS011;60221;45.696;16.076;2022-09-21T06:33:22;4.58;;;1.00;;
72286;SDS011;60221;45.696;16.076;2022-09-21T06:35:53;4.10;;;0.60;;
72286;SDS011;60221;45.696;16.076;2022-09-21T06:38:22;4.67;;;0.78;;
72286;SDS011;60221;45.696;16.076;2022-09-21T06:40:50;11.83;;;1.90;;
72286;SDS011;60221;45.696;16.076;2022-09-21T06:43:17;5.20;;;1.50;;
72286;SDS011;60221;45.696;16.076;2022-09-21T06:45:51;4.25;;;1.20;;
72286;SDS011;60221;45.696;16.076;2022-09-21T06:48:20;4.33;;;0.90;;
72286;SDS011;60221;45.696;16.076;2022-09-21T06:50:48;5.03;;;1.00;;
72286;SDS011;60221;45.696;16.076;2022-09-21T06:53:15;4.65;;;1.25;;
72286;SDS011;60221;45.696;16.076;2022-09-21T06:55:42;7.05;;;1.17;;
72286;SDS011;60221;45.696;16.076;2022-09-21T06:58:08;5.85;;;1.77;;
72286;SDS011;60221;45.696;16.076;2022-09-21T07:00:34;5.27;;;1.50;;
72286;SDS011;60221;45.696;16.076;2022-09-21T07:03:00;4.12;;;1.10;;
72286;SDS011;60221;45.696;16.076;2022-09-21T07:05:27;5.83;;;1.50;;
72286;SDS011;60221;45.696;16.076;2022-09-21T07:07:56;3.73;;;1.10;;
72286;SDS011;60221;45.696;16.076;2022-09-21T07:10:23;7.37;;;1.15;;
72286;SDS011;60221;45.696;16.076;2022-09-21T07:12:51;7.20;;;1.50;;
72286;SDS011;60221;45.696;16.076;2022-09-21T07:15:17;5.70;;;1.42;;
72286;SDS011;60221;45.696;16.076;2022-09-21T07:17:43;12.10;;;3.17;;
72286;SDS011;60221;45.696;16.076;2022-09-21T07:20:10;6.93;;;1.37;;
72286;SDS011;60221;45.696;16.076;2022-09-21T07:22:37;6.65;;;1.80;;
72286;SDS011;60221;45.696;16.076;2022-09-21T07:25:04;15.68;;;3.72;;
72286;SDS011;60221;45.696;16.076;2022-09-21T07:27:31;13.38;;;5.58;;
72286;SDS011;60221;45.696;16.076;2022-09-21T07:29:58;8.10;;;3.30;;
72286;SDS011;60221;45.696;16.076;2022-09-21T07:32:24;10.45;;;4.67;;
72286;SDS011;60221;45.696;16.076;2022-09-21T07:34:50;11.53;;;4.37;;
72286;SDS011;60221;45.696;16.076;2022-09-21T07:37:18;9.33;;;3.67;;
72286;SDS011;60221;45.696;16.076;2022-09-21T07:39:45;3.77;;;0.50;;
72286;SDS011;60221;45.696;16.076;2022-09-21T07:42:11;1.80;;;0.20;;
72286;SDS011;60221;45.696;16.076;2022-09-21T07:44:37;8.43;;;1.30;;
72286;SDS011;60221;45.696;16.076;2022-09-21T07:47:03;3.77;;;0.50;;
72286;SDS011;60221;45.696;16.076;2022-09-21T07:49:29;6.35;;;0.88;;
72286;SDS011;60221;45.696;16.076;2022-09-21T07:51:55;3.47;;;0.88;;
72286;SDS011;60221;45.696;16.076;2022-09-21T07:54:21;5.17;;;1.02;;
72286;SDS011;60221;45.696;16.076;2022-09-21T07:56:47;4.53;;;0.83;;
72286;SDS011;60221;45.696;16.076;2022-09-21T07:59:15;4.17;;;0.93;;
72286;SDS011;60221;45.696;16.076;2022-09-21T08:01:48;3.70;;;0.70;;
72286;SDS011;60221;45.696;16.076;2022-09-21T08:04:14;3.47;;;0.37;;
72286;SDS011;60221;45.696;16.076;2022-09-21T08:06:40;4.95;;;0.68;;
72286;SDS011;60221;45.696;16.076;2022-09-21T08:09:07;3.58;;;0.88;;
72286;SDS011;60221;45.696;16.076;2022-09-21T08:11:34;4.83;;;0.53;;
72286;SDS011;60221;45.696;16.076;2022-09-21T08:14:02;3.08;;;0.62;;
72286;SDS011;60221;45.696;16.076;2022-09-21T08:16:29;5.43;;;0.87;;
72286;SDS011;60221;45.696;16.076;2022-09-21T08:18:56;2.70;;;0.33;;
72286;SDS011;60221;45.696;16.076;2022-09-21T08:21:22;2.05;;;0.20;;
72286;SDS011;60221;45.696;16.076;2022-09-21T08:23:49;3.13;;;0.30;;
72286;SDS011;60221;45.696;16.076;2022-09-21T08:26:16;3.17;;;0.20;;
72286;SDS011;60221;45.696;16.076;2022-09-21T08:28:45;1.82;;;0.20;;
72286;SDS011;60221;45.696;16.076;2022-09-21T08:31:14;1.52;;;0.15;;
72286;SDS011;60221;45.696;16.076;2022-09-21T08:33:44;2.30;;;0.40;;
72286;SDS011;60221;45.696;16.076;2022-09-21T08:36:11;1.70;;;0.10;;
72286;SDS011;60221;45.696;16.076;2022-09-21T08:38:38;2.98;;;0.20;;
72286;SDS011;60221;45.696;16.076;2022-09-21T08:41:17;1.75;;;0.15;;
72286;SDS011;60221;45.696;16.076;2022-09-21T08:44:04;4.30;;;0.13;;
72286;SDS011;60221;45.696;16.076;2022-09-21T08:47:04;2.87;;;0.13;;
72286;SDS011;60221;45.696;16.076;2022-09-21T08:49:40;1.50;;;0.10;;
72286;SDS011;60221;45.696;16.076;2022-09-21T08:52:15;2.80;;;0.25;;
72286;SDS011;60221;45.696;16.076;2022-09-21T08:57:36;1.67;;;0.20;;
72286;SDS011;60221;45.696;16.076;2022-09-21T09:00:06;2.00;;;0.20;;
72286;SDS011;60221;45.696;16.076;2022-09-21T09:22:36;2.40;;;0.20;;
72286;SDS011;60221;45.696;16.076;2022-09-21T09:25:11;2.20;;;0.20;;
72286;SDS011;60221;45.696;16.076;2022-09-21T09:27:47;1.47;;;0.20;;
72286;SDS011;60221;45.696;16.076;2022-09-21T09:30:25;2.72;;;0.30;;
72286;SDS011;60221;45.696;16.076;2022-09-21T09:33:04;1.37;;;0.20;;
72286;SDS011;60221;45.696;16.076;2022-09-21T09:35:51;1.67;;;0.25;;
72286;SDS011;60221;45.696;16.076;2022-09-21T09:38:29;1.85;;;0.20;;
72286;SDS011;60221;45.696;16.076;2022-09-21T09:50:08;1.45;;;0.20;;
72286;SDS011;60221;45.696;16.076;2022-09-21T09:52:38;1.77;;;0.20;;
72286;SDS011;60221;45.696;16.076;2022-09-21T09:55:18;1.37;;;0.10;;
72286;SDS011;60221;45.696;16.076;2022-09-21T09:57:52;2.08;;;0.62;;
72286;SDS011;60221;45.696;16.076;2022-09-21T10:00:21;1.90;;;0.20;;
72286;SDS011;60221;45.696;16.076;2022-09-21T10:02:57;3.58;;;0.17;;
72286;SDS011;60221;45.696;16.076;2022-09-21T10:05:23;1.85;;;0.20;;
72286;SDS011;60221;45.696;16.076;2022-09-21T10:07:57;2.87;;;0.20;;
72286;SDS011;60221;45.696;16.076;2022-09-21T10:10:31;3.55;;;0.20;;
72286;SDS011;60221;45.696;16.076;2022-09-21T10:13:13;3.33;;;0.40;;
72286;SDS011;60221;45.696;16.076;2022-09-21T10:15:53;2.45;;;0.30;;
72286;SDS011;60221;45.696;16.076;2022-09-21T10:21:21;2.73;;;0.20;;
72286;SDS011;60221;45.696;16.076;2022-09-21T10:24:13;1.47;;;0.20;;
72286;SDS011;60221;45.696;16.076;2022-09-21T10:26:52;1.98;;;0.20;;
72286;SDS011;60221;45.696;16.076;2022-09-21T10:31:57;2.17;;;0.30;;
72286;SDS011;60221;45.696;16.076;2022-09-21T10:34:28;2.20;;;0.17;;
72286;SDS011;60221;45.696;16.076;2022-09-21T10:37:00;1.57;;;0.20;;
72286;SDS011;60221;45.696;16.076;2022-09-21T10:39:31;1.25;;;0.10;;
72286;SDS011;60221;45.696;16.076;2022-09-21T10:44:40;2.40;;;0.20;;
72286;SDS011;60221;45.696;16.076;2022-09-21T10:47:20;3.20;;;0.30;;
72286;SDS011;60221;45.696;16.076;2022-09-21T10:50:03;2.12;;;0.20;;
72286;SDS011;60221;45.696;16.076;2022-09-21T10:52:37;1.98;;;0.20;;
72286;SDS011;60221;45.696;16.076;2022-09-21T10:55:17;2.02;;;0.20;;
72286;SDS011;60221;45.696;16.076;2022-09-21T10:57:47;3.40;;;0.30;;
72286;SDS011;60221;45.696;16.076;2022-09-21T11:02:54;2.35;;;0.20;;
72286;SDS011;60221;45.696;16.076;2022-09-21T11:05:26;3.60;;;0.25;;
72286;SDS011;60221;45.696;16.076;2022-09-21T11:08:01;1.67;;;0.20;;
72286;SDS011;60221;45.696;16.076;2022-09-21T11:10:34;1.62;;;0.20;;
72286;SDS011;60221;45.696;16.076;2022-09-21T11:25:01;1.85;;;0.20;;
72286;SDS011;60221;45.696;16.076;2022-09-21T11:27:16;1.60;;;0.20;;
72286;SDS011;60221;45.696;16.076;2022-09-21T11:35:34;2.00;;;0.40;;
72286;SDS011;60221;45.696;16.076;2022-09-21T11:44:20;6.60;;;0.40;;
72286;SDS011;60221;45.696;16.076;2022-09-21T11:59:01;1.12;;;0.10;;
72286;SDS011;60221;45.696;16.076;2022-09-21T12:04:05;1.72;;;0.10;;
72286;SDS011;60221;45.696;16.076;2022-09-21T12:12:40;1.50;;;0.20;;
72286;SDS011;60221;45.696;16.076;2022-09-21T12:15:40;1.37;;;0.20;;
72286;SDS011;60221;45.696;16.076;2022-09-21T12:18:22;1.62;;;0.20;;
72286;SDS011;60221;45.696;16.076;2022-09-21T12:21:06;2.83;;;0.30;;
72286;SDS011;60221;45.696;16.076;2022-09-21T12:23:47;3.73;;;0.43;;
72286;SDS011;60221;45.696;16.076;2022-09-21T12:26:18;1.75;;;0.20;;
72286;SDS011;60221;45.696;16.076;2022-09-21T12:28:53;2.87;;;0.50;;
72286;SDS011;60221;45.696;16.076;2022-09-21T12:31:43;2.70;;;0.80;;
72286;SDS011;60221;45.696;16.076;2022-09-21T12:36:59;1.80;;;0.30;;
72286;SDS011;60221;45.696;16.076;2022-09-21T12:39:46;3.08;;;0.40;;
72286;SDS011;60221;45.696;16.076;2022-09-21T12:42:38;1.22;;;0.15;;
72286;SDS011;60221;45.696;16.076;2022-09-21T12:48:13;1.45;;;0.15;;
72286;SDS011;60221;45.696;16.076;2022-09-21T12:50:57;1.70;;;0.17;;
72286;SDS011;60221;45.696;16.076;2022-09-21T12:53:31;1.57;;;0.20;;
72286;SDS011;60221;45.696;16.076;2022-09-21T12:56:11;1.75;;;0.10;;
72286;SDS011;60221;45.696;16.076;2022-09-21T13:04:13;1.40;;;0.20;;
72286;SDS011;60221;45.696;16.076;2022-09-21T13:09:45;1.52;;;0.20;;
72286;SDS011;60221;45.696;16.076;2022-09-21T13:12:16;2.62;;;0.20;;
72286;SDS011;60221;45.696;16.076;2022-09-21T13:14:48;1.98;;;0.30;;
72286;SDS011;60221;45.696;16.076;2022-09-21T13:17:22;2.67;;;0.20;;
72286;SDS011;60221;45.696;16.076;2022-09-21T13:19:59;2.25;;;0.20;;
72286;SDS011;60221;45.696;16.076;2022-09-21T13:22:30;1.52;;;0.20;;
72286;SDS011;60221;45.696;16.076;2022-09-21T13:30:42;2.10;;;0.20;;
72286;SDS011;60221;45.696;16.076;2022-09-21T13:33:30;1.85;;;0.20;;
72286;SDS011;60221;45.696;16.076;2022-09-21T13:36:01;2.52;;;0.20;;
72286;SDS011;60221;45.696;16.076;2022-09-21T14:02:44;4.05;;;0.30;;
72286;SDS011;60221;45.696;16.076;2022-09-21T14:05:25;1.95;;;0.30;;
72286;SDS011;60221;45.696;16.076;2022-09-21T14:10:49;2.37;;;0.20;;
72286;SDS011;60221;45.696;16.076;2022-09-21T14:13:32;2.22;;;0.25;;
72286;SDS011;60221;45.696;16.076;2022-09-21T14:19:03;2.25;;;0.20;;
72286;SDS011;60221;45.696;16.076;2022-09-21T14:24:35;1.93;;;0.47;;
72286;SDS011;60221;45.696;16.076;2022-09-21T14:30:20;2.47;;;0.25;;
72286;SDS011;60221;45.696;16.076;2022-09-21T14:32:56;1.20;;;0.20;;
72286;SDS011;60221;45.696;16.076;2022-09-21T14:35:29;1.82;;;0.10;;
72286;SDS011;60221;45.696;16.076;2022-09-21T14:38:01;1.87;;;0.10;;
72286;SDS011;60221;45.696;16.076;2022-09-21T14:40:57;1.37;;;0.20;;
72286;SDS011;60221;45.696;16.076;2022-09-21T14:43:29;1.75;;;0.10;;
72286;SDS011;60221;45.696;16.076;2022-09-21T14:46:23;1.12;;;0.20;;
72286;SDS011;60221;45.696;16.076;2022-09-21T14:51:42;1.07;;;0.10;;
72286;SDS011;60221;45.696;16.076;2022-09-21T14:57:37;1.20;;;0.20;;
72286;SDS011;60221;45.696;16.076;2022-09-21T15:02:50;3.47;;;0.25;;
72286;SDS011;60221;45.696;16.076;2022-09-21T15:05:36;1.80;;;0.20;;
72286;SDS011;60221;45.696;16.076;2022-09-21T15:11:27;1.98;;;0.30;;
72286;SDS011;60221;45.696;16.076;2022-09-21T15:14:14;1.25;;;0.10;;
72286;SDS011;60221;45.696;16.076;2022-09-21T15:19:51;1.30;;;0.20;;
72286;SDS011;60221;45.696;16.076;2022-09-21T15:22:25;1.45;;;0.20;;
72286;SDS011;60221;45.696;16.076;2022-09-21T15:24:53;1.60;;;0.10;;
72286;SDS011;60221;45.696;16.076;2022-09-21T15:27:27;1.35;;;0.20;;
72286;SDS011;60221;45.696;16.076;2022-09-21T15:29:58;1.57;;;0.30;;
72286;SDS011;60221;45.696;16.076;2022-09-21T15:35:19;1.15;;;0.10;;
72286;SDS011;60221;45.696;16.076;2022-09-21T15:37:51;1.72;;;0.25;;
72286;SDS011;60221;45.696;16.076;2022-09-21T15:40:24;2.20;;;0.10;;
72286;SDS011;60221;45.696;16.076;2022-09-21T15:42:58;1.57;;;0.17;;
72286;SDS011;60221;45.696;16.076;2022-09-21T15:46:14;1.00;;;0.20;;
72286;SDS011;60221;45.696;16.076;2022-09-21T15:48:16;1.10;;;0.10;;
72286;SDS011;60221;45.696;16.076;2022-09-21T15:50:46;3.65;;;1.05;;
72286;SDS011;60221;45.696;16.076;2022-09-21T15:53:22;1.95;;;0.10;;
72286;SDS011;60221;45.696;16.076;2022-09-21T15:55:56;1.05;;;0.10;;
72286;SDS011;60221;45.696;16.076;2022-09-21T15:58:31;2.50;;;0.20;;
72286;SDS011;60221;45.696;16.076;2022-09-21T16:01:02;2.22;;;0.20;;
72286;SDS011;60221;45.696;16.076;2022-09-21T16:03:39;2.65;;;0.20;;
72286;SDS011;60221;45.696;16.076;2022-09-21T16:06:25;1.27;;;0.10;;
72286;SDS011;60221;45.696;16.076;2022-09-21T16:08:55;1.80;;;0.20;;
72286;SDS011;60221;45.696;16.076;2022-09-21T16:14:13;2.27;;;0.40;;
72286;SDS011;60221;45.696;16.076;2022-09-21T16:19:42;2.87;;;0.20;;
72286;SDS011;60221;45.696;16.076;2022-09-21T16:25:19;3.37;;;0.20;;
72286;SDS011;60221;45.696;16.076;2022-09-21T16:27:49;4.60;;;0.33;;
72286;SDS011;60221;45.696;16.076;2022-09-21T16:38:58;2.13;;;0.20;;
72286;SDS011;60221;45.696;16.076;2022-09-21T16:41:36;1.85;;;0.20;;
72286;SDS011;60221;45.696;16.076;2022-09-21T16:44:03;3.98;;;0.60;;
72286;SDS011;60221;45.696;16.076;2022-09-21T16:46:29;3.08;;;0.30;;
72286;SDS011;60221;45.696;16.076;2022-09-21T16:48:56;2.70;;;0.30;;
72286;SDS011;60221;45.696;16.076;2022-09-21T16:51:25;3.10;;;0.33;;
72286;SDS011;60221;45.696;16.076;2022-09-21T16:53:56;2.30;;;0.40;;
72286;SDS011;60221;45.696;16.076;2022-09-21T16:56:23;3.20;;;0.20;;
72286;SDS011;60221;45.696;16.076;2022-09-21T16:58:49;4.12;;;0.23;;
72286;SDS011;60221;45.696;16.076;2022-09-21T17:01:16;2.77;;;0.30;;
72286;SDS011;60221;45.696;16.076;2022-09-21T17:03:45;3.70;;;0.50;;
72286;SDS011;60221;45.696;16.076;2022-09-21T17:08:46;3.37;;;0.30;;
72286;SDS011;60221;45.696;16.076;2022-09-21T17:11:14;3.37;;;0.75;;
72286;SDS011;60221;45.696;16.076;2022-09-21T17:13:47;4.03;;;1.00;;
72286;SDS011;60221;45.696;16.076;2022-09-21T17:16:15;6.57;;;2.27;;
72286;SDS011;60221;45.696;16.076;2022-09-21T17:18:44;10.55;;;3.62;;
72286;SDS011;60221;45.696;16.076;2022-09-21T17:21:12;12.82;;;4.95;;
72286;SDS011;60221;45.696;16.076;2022-09-21T17:23:40;18.17;;;7.33;;
72286;SDS011;60221;45.696;16.076;2022-09-21T17:26:15;15.78;;;7.53;;
72286;SDS011;60221;45.696;16.076;2022-09-21T17:28:42;15.40;;;7.53;;
72286;SDS011;60221;45.696;16.076;2022-09-21T17:31:10;13.98;;;6.40;;
72286;SDS011;60221;45.696;16.076;2022-09-21T17:33:38;16.52;;;6.92;;
72286;SDS011;60221;45.696;16.076;2022-09-21T17:36:08;12.90;;;5.67;;
72286;SDS011;60221;45.696;16.076;2022-09-21T17:38:42;11.38;;;4.00;;
72286;SDS011;60221;45.696;16.076;2022-09-21T17:43:57;14.47;;;4.47;;
72286;SDS011;60221;45.696;16.076;2022-09-21T17:47:39;11.08;;;4.30;;
72286;SDS011;60221;45.696;16.076;2022-09-21T17:49:27;12.07;;;4.20;;
72286;SDS011;60221;45.696;16.076;2022-09-21T17:51:55;11.20;;;4.20;;
72286;SDS011;60221;45.696;16.076;2022-09-21T17:54:40;10.03;;;3.53;;
72286;SDS011;60221;45.696;16.076;2022-09-21T18:00:21;7.40;;;1.42;;
72286;SDS011;60221;45.696;16.076;2022-09-21T18:02:51;4.28;;;1.00;;
72286;SDS011;60221;45.696;16.076;2022-09-21T18:05:26;5.03;;;1.52;;
72286;SDS011;60221;45.696;16.076;2022-09-21T18:07:55;6.10;;;2.10;;
72286;SDS011;60221;45.696;16.076;2022-09-21T18:10:22;7.22;;;2.70;;
72286;SDS011;60221;45.696;16.076;2022-09-21T18:16:21;11.35;;;4.83;;
72286;SDS011;60221;45.696;16.076;2022-09-21T18:18:42;21.45;;;9.90;;
72286;SDS011;60221;45.696;16.076;2022-09-21T18:21:15;17.90;;;8.47;;
72286;SDS011;60221;45.696;16.076;2022-09-21T18:26:34;17.50;;;7.35;;
72286;SDS011;60221;45.696;16.076;2022-09-21T18:29:02;19.62;;;10.95;;
72286;SDS011;60221;45.696;16.076;2022-09-21T18:37:08;19.48;;;8.78;;
72286;SDS011;60221;45.696;16.076;2022-09-21T18:42:48;20.80;;;12.37;;
72286;SDS011;60221;45.696;16.076;2022-09-21T18:45:17;10.10;;;3.95;;
72286;SDS011;60221;45.696;16.076;2022-09-21T18:47:53;4.00;;;0.97;;
72286;SDS011;60221;45.696;16.076;2022-09-21T18:50:56;2.92;;;0.68;;
72286;SDS011;60221;45.696;16.076;2022-09-21T18:53:52;4.95;;;0.70;;
72286;SDS011;60221;45.696;16.076;2022-09-21T18:56:17;5.78;;;1.20;;
72286;SDS011;60221;45.696;16.076;2022-09-21T18:58:44;6.75;;;1.95;;
72286;SDS011;60221;45.696;16.076;2022-09-21T19:01:12;6.90;;;2.07;;
72286;SDS011;60221;45.696;16.076;2022-09-21T19:03:42;11.80;;;2.65;;
72286;SDS011;60221;45.696;16.076;2022-09-21T19:15:00;16.60;;;9.20;;
72286;SDS011;60221;45.696;16.076;2022-09-21T19:18:02;8.68;;;5.10;;
72286;SDS011;60221;45.696;16.076;2022-09-21T19:26:32;6.97;;;2.10;;